sensor_id;sensor_type;location;lat;lon;timestamp;P1;durP1;ratioP1;P2;durP2;ratioP2
64022;SDS011;50264;52.088;5.296;2022-08-24T00:01:17;1800.9;;;206.3;;
64022;SDS011;50264;52.088;5.296;2022-08-24T00:02:54;1999.9;;;273.0;;
64022;SDS011;50264;52.088;5.296;2022-08-24T00:04:30;1907.6;;;282.8;;
64022;SDS011;50264;52.088;5.296;2022-08-24T00:07:48;1997.6;;;244.8;;
64022;SDS011;50264;52.088;5.296;2022-08-24T00:09:25;1962.8;;;267.7;;
64022;SDS011;50264;52.088;5.296;2022-08-24T00:11:02;1999.9;;;271.7;;
64022;SDS011;50264;52.088;5.296;2022-08-24T00:12:39;1999.9;;;291.3;;
64022;SDS011;50264;52.088;5.296;2022-08-24T00:15:52;1863.3;;;262.61;;
64022;SDS011;50264;52.088;5.296;2022-08-24T00:17:30;1999.9;;;254.9;;
64022;SDS011;50264;52.088;5.296;2022-08-24T00:19:06;1999.9;;;290.91;;
64022;SDS011;50264;52.088;5.296;2022-08-24T00:22:19;1932.9;;;273.8;;
64022;SDS011;50264;52.088;5.296;2022-08-24T00:23:55;1884.0;;;238.8;;
64022;SDS011;50264;52.088;5.296;2022-08-24T00:25:32;1985.2;;;224.7;;
64022;SDS011;50264;52.088;5.296;2022-08-24T00:27:10;1963.1;;;239.6;;
64022;SDS011;50264;52.088;5.296;2022-08-24T00:30:22;1854.5;;;271.0;;
64022;SDS011;50264;52.088;5.296;2022-08-24T00:31:59;1999.9;;;284.0;;
64022;SDS011;50264;52.088;5.296;2022-08-24T00:33:35;1893.0;;;234.8;;
64022;SDS011;50264;52.088;5.296;2022-08-24T00:36:52;1999.9;;;261.61;;
64022;SDS011;50264;52.088;5.296;2022-08-24T00:38:30;1999.9;;;281.11;;
64022;SDS011;50264;52.088;5.296;2022-08-24T00:40:11;1910.1;;;254.7;;
64022;SDS011;50264;52.088;5.296;2022-08-24T00:41:53;1996.1;;;267.2;;
64022;SDS011;50264;52.088;5.296;2022-08-24T00:45:08;1999.9;;;257.7;;
64022;SDS011;50264;52.088;5.296;2022-08-24T00:46:47;1999.9;;;257.2;;
64022;SDS011;50264;52.088;5.296;2022-08-24T00:48:35;1996.7;;;262.11;;
64022;SDS011;50264;52.088;5.296;2022-08-24T00:50:18;1999.9;;;257.2;;
64022;SDS011;50264;52.088;5.296;2022-08-24T00:53:42;1900.4;;;252.8;;
64022;SDS011;50264;52.088;5.296;2022-08-24T00:55:28;1999.9;;;278.41;;
64022;SDS011;50264;52.088;5.296;2022-08-24T00:57:12;1999.9;;;301.91;;
64022;SDS011;50264;52.088;5.296;2022-08-24T00:58:53;1999.9;;;290.5;;
64022;SDS011;50264;52.088;5.296;2022-08-24T01:02:24;1999.9;;;281.61;;
64022;SDS011;50264;52.088;5.296;2022-08-24T01:04:05;1757.6;;;217.3;;
64022;SDS011;50264;52.088;5.296;2022-08-24T01:05:46;1890.0;;;218.6;;
64022;SDS011;50264;52.088;5.296;2022-08-24T01:07:23;1784.3;;;216.9;;
64022;SDS011;50264;52.088;5.296;2022-08-24T01:09:03;1999.9;;;281.11;;
64022;SDS011;50264;52.088;5.296;2022-08-24T01:12:21;1999.9;;;289.8;;
64022;SDS011;50264;52.088;5.296;2022-08-24T01:14:02;1841.7;;;267.11;;
64022;SDS011;50264;52.088;5.296;2022-08-24T01:15:40;1975.7;;;270.8;;
64022;SDS011;50264;52.088;5.296;2022-08-24T01:20:11;1901.1;;;255.8;;
64022;SDS011;50264;52.088;5.296;2022-08-24T01:21:51;1994.9;;;242.8;;
64022;SDS011;50264;52.088;5.296;2022-08-24T01:23:41;1963.6;;;276.61;;
64022;SDS011;50264;52.088;5.296;2022-08-24T01:27:00;1848.7;;;269.8;;
64022;SDS011;50264;52.088;5.296;2022-08-24T01:28:39;1937.4;;;249.7;;
64022;SDS011;50264;52.088;5.296;2022-08-24T01:30:18;1999.9;;;283.41;;
64022;SDS011;50264;52.088;5.296;2022-08-24T01:33:32;1999.9;;;266.0;;
64022;SDS011;50264;52.088;5.296;2022-08-24T01:35:09;1909.9;;;265.4;;
64022;SDS011;50264;52.088;5.296;2022-08-24T01:36:47;1917.5;;;268.9;;
64022;SDS011;50264;52.088;5.296;2022-08-24T01:38:26;1999.9;;;293.5;;
64022;SDS011;50264;52.088;5.296;2022-08-24T01:41:42;1999.9;;;294.2;;
64022;SDS011;50264;52.088;5.296;2022-08-24T01:43:18;1999.9;;;265.2;;
64022;SDS011;50264;52.088;5.296;2022-08-24T01:44:54;1749.3;;;245.1;;
64022;SDS011;50264;52.088;5.296;2022-08-24T01:48:09;1803.3;;;267.8;;
64022;SDS011;50264;52.088;5.296;2022-08-24T01:49:47;1994.1;;;260.9;;
64022;SDS011;50264;52.088;5.296;2022-08-24T01:51:24;1966.0;;;282.2;;
64022;SDS011;50264;52.088;5.296;2022-08-24T01:53:05;1780.8;;;259.61;;
64022;SDS011;50264;52.088;5.296;2022-08-24T01:56:20;1958.8;;;280.11;;
64022;SDS011;50264;52.088;5.296;2022-08-24T01:57:56;1940.0;;;278.8;;
64022;SDS011;50264;52.088;5.296;2022-08-24T01:59:34;1968.1;;;278.3;;
64022;SDS011;50264;52.088;5.296;2022-08-24T02:02:49;1744.0;;;266.7;;
64022;SDS011;50264;52.088;5.296;2022-08-24T02:04:26;1999.9;;;257.8;;
64022;SDS011;50264;52.088;5.296;2022-08-24T02:07:41;1824.5;;;251.3;;
64022;SDS011;50264;52.088;5.296;2022-08-24T02:10:53;1941.0;;;223.4;;
64022;SDS011;50264;52.088;5.296;2022-08-24T02:12:29;1999.9;;;257.3;;
64022;SDS011;50264;52.088;5.296;2022-08-24T02:14:06;1851.9;;;268.7;;
64022;SDS011;50264;52.088;5.296;2022-08-24T02:17:19;1927.9;;;273.8;;
64022;SDS011;50264;52.088;5.296;2022-08-24T02:18:56;1877.3;;;256.9;;
64022;SDS011;50264;52.088;5.296;2022-08-24T02:20:32;1999.9;;;267.7;;
64022;SDS011;50264;52.088;5.296;2022-08-24T02:23:47;1994.5;;;265.5;;
64022;SDS011;50264;52.088;5.296;2022-08-24T02:25:24;1929.8;;;247.0;;
64022;SDS011;50264;52.088;5.296;2022-08-24T02:27:01;1741.3;;;250.9;;
64022;SDS011;50264;52.088;5.296;2022-08-24T02:28:38;1722.8;;;250.9;;
64022;SDS011;50264;52.088;5.296;2022-08-24T02:31:52;1757.0;;;235.7;;
64022;SDS011;50264;52.088;5.296;2022-08-24T02:33:29;1992.3;;;277.11;;
64022;SDS011;50264;52.088;5.296;2022-08-24T02:35:05;1883.5;;;259.3;;
64022;SDS011;50264;52.088;5.296;2022-08-24T02:38:19;1752.2;;;257.8;;
64022;SDS011;50264;52.088;5.296;2022-08-24T02:39:56;1999.9;;;256.4;;
64022;SDS011;50264;52.088;5.296;2022-08-24T02:41:32;1960.1;;;272.8;;
64022;SDS011;50264;52.088;5.296;2022-08-24T02:43:09;1746.5;;;240.3;;
64022;SDS011;50264;52.088;5.296;2022-08-24T02:46:24;1735.7;;;214.0;;
64022;SDS011;50264;52.088;5.296;2022-08-24T02:48:02;1735.7;;;214.0;;
64022;SDS011;50264;52.088;5.296;2022-08-24T02:49:39;1712.9;;;251.6;;
64022;SDS011;50264;52.088;5.296;2022-08-24T02:52:54;1781.1;;;222.4;;
64022;SDS011;50264;52.088;5.296;2022-08-24T02:54:31;1854.7;;;214.2;;
64022;SDS011;50264;52.088;5.296;2022-08-24T02:56:07;1755.7;;;200.3;;
64022;SDS011;50264;52.088;5.296;2022-08-24T02:59:19;1949.0;;;228.3;;
64022;SDS011;50264;52.088;5.296;2022-08-24T03:00:56;1766.5;;;216.9;;
64022;SDS011;50264;52.088;5.296;2022-08-24T03:02:31;1766.4;;;210.0;;
64022;SDS011;50264;52.088;5.296;2022-08-24T03:04:08;1950.0;;;261.61;;
64022;SDS011;50264;52.088;5.296;2022-08-24T03:07:20;1913.2;;;214.2;;
64022;SDS011;50264;52.088;5.296;2022-08-24T03:08:56;1983.1;;;225.6;;
64022;SDS011;50264;52.088;5.296;2022-08-24T03:10:32;1786.3;;;237.4;;
64022;SDS011;50264;52.088;5.296;2022-08-24T03:13:46;1983.3;;;268.0;;
64022;SDS011;50264;52.088;5.296;2022-08-24T03:15:22;1864.4;;;239.9;;
64022;SDS011;50264;52.088;5.296;2022-08-24T03:16:58;1999.9;;;258.11;;
64022;SDS011;50264;52.088;5.296;2022-08-24T03:20:14;1631.4;;;197.2;;
64022;SDS011;50264;52.088;5.296;2022-08-24T03:21:54;1728.4;;;191.0;;
64022;SDS011;50264;52.088;5.296;2022-08-24T03:23:32;1909.9;;;213.5;;
64022;SDS011;50264;52.088;5.296;2022-08-24T03:25:09;1848.7;;;260.7;;
64022;SDS011;50264;52.088;5.296;2022-08-24T03:28:27;1761.6;;;202.6;;
64022;SDS011;50264;52.088;5.296;2022-08-24T03:30:05;1832.3;;;192.1;;
64022;SDS011;50264;52.088;5.296;2022-08-24T03:31:44;1877.0;;;187.3;;
64022;SDS011;50264;52.088;5.296;2022-08-24T03:33:22;1692.9;;;251.0;;
64022;SDS011;50264;52.088;5.296;2022-08-24T03:36:35;1695.7;;;216.7;;
64022;SDS011;50264;52.088;5.296;2022-08-24T03:38:12;1686.8;;;215.9;;
64022;SDS011;50264;52.088;5.296;2022-08-24T03:39:49;1768.8;;;247.9;;
64022;SDS011;50264;52.088;5.296;2022-08-24T03:43:02;1782.5;;;250.2;;
64022;SDS011;50264;52.088;5.296;2022-08-24T03:44:38;1875.6;;;241.2;;
64022;SDS011;50264;52.088;5.296;2022-08-24T03:46:16;1686.5;;;248.4;;
64022;SDS011;50264;52.088;5.296;2022-08-24T03:49:33;1757.9;;;242.6;;
64022;SDS011;50264;52.088;5.296;2022-08-24T03:51:09;1966.1;;;265.61;;
64022;SDS011;50264;52.088;5.296;2022-08-24T03:52:48;1670.8;;;231.5;;
64022;SDS011;50264;52.088;5.296;2022-08-24T03:54:25;1794.8;;;243.6;;
64022;SDS011;50264;52.088;5.296;2022-08-24T03:57:38;1646.5;;;231.8;;
64022;SDS011;50264;52.088;5.296;2022-08-24T03:59:14;1865.8;;;227.0;;
64022;SDS011;50264;52.088;5.296;2022-08-24T04:00:50;1753.4;;;212.1;;
64022;SDS011;50264;52.088;5.296;2022-08-24T04:04:03;1790.6;;;257.2;;
64022;SDS011;50264;52.088;5.296;2022-08-24T04:05:39;1451.8;;;212.3;;
64022;SDS011;50264;52.088;5.296;2022-08-24T04:07:16;1655.9;;;215.5;;
64022;SDS011;50264;52.088;5.296;2022-08-24T04:08:54;1981.4;;;269.9;;
64022;SDS011;50264;52.088;5.296;2022-08-24T04:12:08;1981.4;;;269.9;;
64022;SDS011;50264;52.088;5.296;2022-08-24T04:13:46;1999.9;;;261.8;;
64022;SDS011;50264;52.088;5.296;2022-08-24T04:15:23;1648.0;;;207.0;;
64022;SDS011;50264;52.088;5.296;2022-08-24T04:18:38;1835.9;;;244.6;;
64022;SDS011;50264;52.088;5.296;2022-08-24T04:20:15;1796.5;;;218.2;;
64022;SDS011;50264;52.088;5.296;2022-08-24T04:21:52;1618.2;;;227.5;;
64022;SDS011;50264;52.088;5.296;2022-08-24T04:25:05;1903.3;;;258.2;;
64022;SDS011;50264;52.088;5.296;2022-08-24T04:26:43;1809.2;;;243.6;;
64022;SDS011;50264;52.088;5.296;2022-08-24T04:28:20;1812.8;;;251.5;;
64022;SDS011;50264;52.088;5.296;2022-08-24T04:29:56;1994.9;;;263.61;;
64022;SDS011;50264;52.088;5.296;2022-08-24T04:33:12;1590.1;;;217.1;;
64022;SDS011;50264;52.088;5.296;2022-08-24T04:34:49;1660.2;;;234.4;;
64022;SDS011;50264;52.088;5.296;2022-08-24T04:36:25;1850.6;;;260.2;;
64022;SDS011;50264;52.088;5.296;2022-08-24T04:39:39;1774.5;;;247.9;;
64022;SDS011;50264;52.088;5.296;2022-08-24T04:41:15;1718.2;;;220.5;;
64022;SDS011;50264;52.088;5.296;2022-08-24T04:42:53;1582.5;;;232.1;;
64022;SDS011;50264;52.088;5.296;2022-08-24T04:44:30;1653.8;;;194.3;;
64022;SDS011;50264;52.088;5.296;2022-08-24T04:47:44;1875.1;;;224.2;;
64022;SDS011;50264;52.088;5.296;2022-08-24T04:49:21;1706.1;;;201.0;;
64022;SDS011;50264;52.088;5.296;2022-08-24T04:51:00;1938.3;;;244.2;;
64022;SDS011;50264;52.088;5.296;2022-08-24T04:54:14;1909.2;;;224.3;;
64022;SDS011;50264;52.088;5.296;2022-08-24T04:55:50;1868.1;;;252.0;;
64022;SDS011;50264;52.088;5.296;2022-08-24T04:57:26;1724.1;;;234.0;;
64022;SDS011;50264;52.088;5.296;2022-08-24T05:00:40;1550.0;;;179.6;;
64022;SDS011;50264;52.088;5.296;2022-08-24T05:02:19;1788.4;;;189.9;;
64022;SDS011;50264;52.088;5.296;2022-08-24T05:03:56;1487.6;;;226.8;;
64022;SDS011;50264;52.088;5.296;2022-08-24T05:05:33;1941.0;;;255.0;;
64022;SDS011;50264;52.088;5.296;2022-08-24T05:08:46;1894.7;;;236.9;;
64022;SDS011;50264;52.088;5.296;2022-08-24T05:10:23;1897.5;;;262.0;;
64022;SDS011;50264;52.088;5.296;2022-08-24T05:12:00;1560.2;;;220.1;;
64022;SDS011;50264;52.088;5.296;2022-08-24T05:15:15;1601.0;;;190.2;;
64022;SDS011;50264;52.088;5.296;2022-08-24T05:16:51;1579.6;;;181.6;;
64022;SDS011;50264;52.088;5.296;2022-08-24T05:18:28;1629.9;;;176.7;;
64022;SDS011;50264;52.088;5.296;2022-08-24T05:20:05;1587.6;;;189.5;;
64022;SDS011;50264;52.088;5.296;2022-08-24T05:23:19;1767.4;;;189.7;;
64022;SDS011;50264;52.088;5.296;2022-08-24T05:24:56;1688.8;;;222.3;;
64022;SDS011;50264;52.088;5.296;2022-08-24T05:26:32;1948.1;;;264.5;;
64022;SDS011;50264;52.088;5.296;2022-08-24T05:29:45;1546.8;;;209.2;;
64022;SDS011;50264;52.088;5.296;2022-08-24T05:31:22;1547.2;;;216.3;;
64022;SDS011;50264;52.088;5.296;2022-08-24T05:33:01;1640.0;;;252.4;;
64022;SDS011;50264;52.088;5.296;2022-08-24T05:36:14;1587.1;;;211.3;;
64022;SDS011;50264;52.088;5.296;2022-08-24T05:37:53;1660.3;;;240.2;;
64022;SDS011;50264;52.088;5.296;2022-08-24T05:39:30;1664.1;;;251.1;;
64022;SDS011;50264;52.088;5.296;2022-08-24T05:41:06;1788.2;;;256.5;;
64022;SDS011;50264;52.088;5.296;2022-08-24T05:44:18;1699.5;;;248.2;;
64022;SDS011;50264;52.088;5.296;2022-08-24T05:45:54;1999.9;;;263.4;;
64022;SDS011;50264;52.088;5.296;2022-08-24T05:47:31;1600.9;;;238.4;;
64022;SDS011;50264;52.088;5.296;2022-08-24T05:50:49;1627.0;;;220.1;;
64022;SDS011;50264;52.088;5.296;2022-08-24T05:52:28;1788.0;;;260.9;;
64022;SDS011;50264;52.088;5.296;2022-08-24T05:54:05;1779.1;;;246.6;;
64022;SDS011;50264;52.088;5.296;2022-08-24T05:55:41;1689.3;;;212.2;;
64022;SDS011;50264;52.088;5.296;2022-08-24T05:58:55;1822.1;;;206.8;;
64022;SDS011;50264;52.088;5.296;2022-08-24T06:00:32;1896.2;;;227.7;;
64022;SDS011;50264;52.088;5.296;2022-08-24T06:02:08;1905.8;;;233.1;;
64022;SDS011;50264;52.088;5.296;2022-08-24T06:05:23;1904.9;;;221.0;;
64022;SDS011;50264;52.088;5.296;2022-08-24T06:06:59;1882.8;;;223.7;;
64022;SDS011;50264;52.088;5.296;2022-08-24T06:08:36;1909.0;;;266.2;;
64022;SDS011;50264;52.088;5.296;2022-08-24T06:10:13;1915.1;;;226.0;;
64022;SDS011;50264;52.088;5.296;2022-08-24T06:13:26;1999.9;;;242.0;;
64022;SDS011;50264;52.088;5.296;2022-08-24T06:15:02;1830.0;;;241.4;;
64022;SDS011;50264;52.088;5.296;2022-08-24T06:16:40;1917.4;;;272.7;;
64022;SDS011;50264;52.088;5.296;2022-08-24T06:19:57;1801.6;;;250.4;;
64022;SDS011;50264;52.088;5.296;2022-08-24T06:21:35;1947.1;;;259.61;;
64022;SDS011;50264;52.088;5.296;2022-08-24T06:23:12;1881.0;;;268.9;;
64022;SDS011;50264;52.088;5.296;2022-08-24T06:27:41;1998.4;;;233.1;;
64022;SDS011;50264;52.088;5.296;2022-08-24T06:29:18;1999.9;;;249.7;;
64022;SDS011;50264;52.088;5.296;2022-08-24T06:32:38;1999.9;;;242.3;;
64022;SDS011;50264;52.088;5.296;2022-08-24T06:34:15;1999.9;;;227.1;;
64022;SDS011;50264;52.088;5.296;2022-08-24T06:35:53;1882.2;;;229.1;;
64022;SDS011;50264;52.088;5.296;2022-08-24T06:37:29;1999.9;;;259.5;;
64022;SDS011;50264;52.088;5.296;2022-08-24T06:40:43;1994.3;;;237.2;;
64022;SDS011;50264;52.088;5.296;2022-08-24T06:42:19;1999.9;;;251.7;;
64022;SDS011;50264;52.088;5.296;2022-08-24T06:43:56;1999.9;;;251.7;;
64022;SDS011;50264;52.088;5.296;2022-08-24T06:47:10;1999.9;;;246.6;;
64022;SDS011;50264;52.088;5.296;2022-08-24T06:48:46;1999.9;;;266.3;;
64022;SDS011;50264;52.088;5.296;2022-08-24T06:50:23;1999.9;;;273.5;;
64022;SDS011;50264;52.088;5.296;2022-08-24T06:53:36;1999.9;;;251.6;;
64022;SDS011;50264;52.088;5.296;2022-08-24T06:55:12;1999.9;;;268.9;;
64022;SDS011;50264;52.088;5.296;2022-08-24T06:56:48;1999.9;;;257.2;;
64022;SDS011;50264;52.088;5.296;2022-08-24T06:58:25;1999.9;;;285.7;;
64022;SDS011;50264;52.088;5.296;2022-08-24T07:03:17;1999.9;;;269.8;;
64022;SDS011;50264;52.088;5.296;2022-08-24T07:04:53;1999.9;;;286.8;;
64022;SDS011;50264;52.088;5.296;2022-08-24T07:08:07;1999.9;;;258.61;;
64022;SDS011;50264;52.088;5.296;2022-08-24T07:09:43;1986.2;;;260.3;;
64022;SDS011;50264;52.088;5.296;2022-08-24T07:11:21;1999.9;;;268.9;;
64022;SDS011;50264;52.088;5.296;2022-08-24T07:14:34;1999.9;;;266.3;;
64022;SDS011;50264;52.088;5.296;2022-08-24T07:16:10;1999.9;;;259.5;;
64022;SDS011;50264;52.088;5.296;2022-08-24T07:17:46;1999.9;;;249.3;;
64022;SDS011;50264;52.088;5.296;2022-08-24T07:19:22;1999.9;;;261.61;;
64022;SDS011;50264;52.088;5.296;2022-08-24T07:22:37;1999.9;;;279.11;;
64022;SDS011;50264;52.088;5.296;2022-08-24T07:24:14;1999.9;;;282.91;;
64022;SDS011;50264;52.088;5.296;2022-08-24T07:25:50;1999.9;;;279.61;;
64022;SDS011;50264;52.088;5.296;2022-08-24T07:29:05;1999.9;;;274.5;;
64022;SDS011;50264;52.088;5.296;2022-08-24T07:30:45;1999.9;;;276.11;;
64022;SDS011;50264;52.088;5.296;2022-08-24T07:32:22;1823.0;;;227.7;;
64022;SDS011;50264;52.088;5.296;2022-08-24T07:33:58;1987.2;;;257.4;;
64022;SDS011;50264;52.088;5.296;2022-08-24T07:37:13;1999.9;;;275.61;;
64022;SDS011;50264;52.088;5.296;2022-08-24T07:38:51;1999.9;;;262.61;;
64022;SDS011;50264;52.088;5.296;2022-08-24T07:40:29;1999.9;;;259.3;;
64022;SDS011;50264;52.088;5.296;2022-08-24T07:43:44;1999.9;;;268.5;;
64022;SDS011;50264;52.088;5.296;2022-08-24T07:45:21;1999.9;;;289.7;;
64022;SDS011;50264;52.088;5.296;2022-08-24T07:46:59;1999.9;;;262.2;;
64022;SDS011;50264;52.088;5.296;2022-08-24T07:48:35;1999.9;;;261.3;;
64022;SDS011;50264;52.088;5.296;2022-08-24T07:51:47;1999.9;;;251.2;;
64022;SDS011;50264;52.088;5.296;2022-08-24T07:53:24;1999.9;;;241.1;;
64022;SDS011;50264;52.088;5.296;2022-08-24T07:55:00;1999.9;;;273.5;;
64022;SDS011;50264;52.088;5.296;2022-08-24T07:58:15;1987.4;;;230.3;;
64022;SDS011;50264;52.088;5.296;2022-08-24T07:59:51;1999.9;;;250.1;;
64022;SDS011;50264;52.088;5.296;2022-08-24T08:01:27;1999.9;;;288.2;;
64022;SDS011;50264;52.088;5.296;2022-08-24T08:04:41;1999.9;;;251.2;;
64022;SDS011;50264;52.088;5.296;2022-08-24T08:06:18;1999.9;;;260.3;;
64022;SDS011;50264;52.088;5.296;2022-08-24T08:07:55;1999.9;;;247.6;;
64022;SDS011;50264;52.088;5.296;2022-08-24T08:09:31;1999.9;;;255.7;;
64022;SDS011;50264;52.088;5.296;2022-08-24T08:12:45;1999.9;;;268.4;;
64022;SDS011;50264;52.088;5.296;2022-08-24T08:14:21;1999.9;;;261.8;;
64022;SDS011;50264;52.088;5.296;2022-08-24T08:15:58;1999.9;;;272.0;;
64022;SDS011;50264;52.088;5.296;2022-08-24T08:19:13;1999.9;;;263.3;;
64022;SDS011;50264;52.088;5.296;2022-08-24T08:20:49;1999.9;;;290.0;;
64022;SDS011;50264;52.088;5.296;2022-08-24T08:25:19;1999.9;;;285.8;;
64022;SDS011;50264;52.088;5.296;2022-08-24T08:26:56;1999.9;;;280.8;;
64022;SDS011;50264;52.088;5.296;2022-08-24T08:28:33;1999.9;;;291.8;;
64022;SDS011;50264;52.088;5.296;2022-08-24T08:31:46;1999.9;;;272.9;;
64022;SDS011;50264;52.088;5.296;2022-08-24T08:33:22;1999.9;;;273.2;;
64022;SDS011;50264;52.088;5.296;2022-08-24T08:34:58;1999.9;;;282.5;;
64022;SDS011;50264;52.088;5.296;2022-08-24T08:38:12;1999.9;;;310.0;;
64022;SDS011;50264;52.088;5.296;2022-08-24T08:39:48;1999.9;;;307.0;;
64022;SDS011;50264;52.088;5.296;2022-08-24T08:41:35;1999.9;;;285.3;;
64022;SDS011;50264;52.088;5.296;2022-08-24T08:45:20;1999.9;;;322.8;;
64022;SDS011;50264;52.088;5.296;2022-08-24T08:49:02;1999.9;;;305.3;;
64022;SDS011;50264;52.088;5.296;2022-08-24T08:51:05;1999.9;;;314.3;;
64022;SDS011;50264;52.088;5.296;2022-08-24T08:54:28;1999.9;;;313.91;;
64022;SDS011;50264;52.088;5.296;2022-08-24T08:56:24;1999.9;;;291.8;;
64022;SDS011;50264;52.088;5.296;2022-08-24T08:58:14;1999.9;;;302.41;;
64022;SDS011;50264;52.088;5.296;2022-08-24T09:00:10;1999.9;;;291.61;;
64022;SDS011;50264;52.088;5.296;2022-08-24T09:01:51;1999.9;;;293.11;;
64022;SDS011;50264;52.088;5.296;2022-08-24T09:07:17;1999.9;;;291.0;;
64022;SDS011;50264;52.088;5.296;2022-08-24T09:09:21;1999.9;;;278.41;;
64022;SDS011;50264;52.088;5.296;2022-08-24T09:11:15;1999.9;;;311.7;;
64022;SDS011;50264;52.088;5.296;2022-08-24T09:13:06;1999.9;;;298.91;;
64022;SDS011;50264;52.088;5.296;2022-08-24T09:15:00;1999.9;;;291.61;;
64022;SDS011;50264;52.088;5.296;2022-08-24T09:16:58;1999.9;;;299.11;;
64022;SDS011;50264;52.088;5.296;2022-08-24T09:18:52;1999.9;;;305.3;;
64022;SDS011;50264;52.088;5.296;2022-08-24T09:20:48;1999.9;;;308.8;;
64022;SDS011;50264;52.088;5.296;2022-08-24T09:22:46;1999.9;;;306.3;;
64022;SDS011;50264;52.088;5.296;2022-08-24T09:26:58;1999.9;;;305.3;;
64022;SDS011;50264;52.088;5.296;2022-08-24T09:30:39;1999.9;;;313.7;;
64022;SDS011;50264;52.088;5.296;2022-08-24T09:32:40;1999.9;;;294.0;;
64022;SDS011;50264;52.088;5.296;2022-08-24T09:34:44;1999.9;;;270.8;;
64022;SDS011;50264;52.088;5.296;2022-08-24T09:36:31;1999.9;;;305.7;;
64022;SDS011;50264;52.088;5.296;2022-08-24T09:38:29;1999.9;;;284.7;;
64022;SDS011;50264;52.088;5.296;2022-08-24T09:40:35;1999.9;;;287.2;;
64022;SDS011;50264;52.088;5.296;2022-08-24T09:43:29;1999.9;;;282.61;;
64022;SDS011;50264;52.088;5.296;2022-08-24T09:45:59;1999.9;;;298.2;;
64022;SDS011;50264;52.088;5.296;2022-08-24T09:49:41;1999.9;;;312.41;;
64022;SDS011;50264;52.088;5.296;2022-08-24T09:53:19;1999.9;;;341.5;;
64022;SDS011;50264;52.088;5.296;2022-08-24T09:55:30;595.31;;;110.9;;
64022;SDS011;50264;52.088;5.296;2022-08-24T09:57:42;598.21;;;112.4;;
64022;SDS011;50264;52.088;5.296;2022-08-24T09:59:41;1023.9;;;201.5;;
64022;SDS011;50264;52.088;5.296;2022-08-24T10:01:38;1750.4;;;304.7;;
64022;SDS011;50264;52.088;5.296;2022-08-24T10:03:35;1999.9;;;335.5;;
64022;SDS011;50264;52.088;5.296;2022-08-24T10:05:33;1231.91;;;211.6;;
64022;SDS011;50264;52.088;5.296;2022-08-24T10:07:35;1276.61;;;242.6;;
64022;SDS011;50264;52.088;5.296;2022-08-24T10:09:32;1999.9;;;433.3;;
64022;SDS011;50264;52.088;5.296;2022-08-24T10:11:26;1999.9;;;505.7;;
64022;SDS011;50264;52.088;5.296;2022-08-24T10:13:20;1999.9;;;582.71;;
64022;SDS011;50264;52.088;5.296;2022-08-24T10:15:05;1999.9;;;791.9;;
64022;SDS011;50264;52.088;5.296;2022-08-24T10:18:42;1696.8;;;412.5;;
64022;SDS011;50264;52.088;5.296;2022-08-24T10:20:41;559.81;;;169.9;;
64022;SDS011;50264;52.088;5.296;2022-08-24T10:22:34;1439.6;;;240.7;;
64022;SDS011;50264;52.088;5.296;2022-08-24T10:24:39;1882.4;;;303.41;;
64022;SDS011;50264;52.088;5.296;2022-08-24T10:26:37;1999.9;;;334.5;;
64022;SDS011;50264;52.088;5.296;2022-08-24T10:28:38;1999.9;;;361.3;;
64022;SDS011;50264;52.088;5.296;2022-08-24T10:30:57;1266.0;;;185.1;;
64022;SDS011;50264;52.088;5.296;2022-08-24T10:32:43;1606.1;;;215.4;;
64022;SDS011;50264;52.088;5.296;2022-08-24T10:34:33;344.3;;;64.8;;
64022;SDS011;50264;52.088;5.296;2022-08-24T10:36:29;852.6;;;133.81;;
64022;SDS011;50264;52.088;5.296;2022-08-24T10:40:06;1503.9;;;204.7;;
64022;SDS011;50264;52.088;5.296;2022-08-24T10:42:04;1999.9;;;377.9;;
64022;SDS011;50264;52.088;5.296;2022-08-24T10:44:42;1969.3;;;268.2;;
64022;SDS011;50264;52.088;5.296;2022-08-24T10:46:56;1826.2;;;261.7;;
64022;SDS011;50264;52.088;5.296;2022-08-24T10:48:42;1999.9;;;734.6;;
64022;SDS011;50264;52.088;5.296;2022-08-24T10:51:13;1999.9;;;669.0;;
64022;SDS011;50264;52.088;5.296;2022-08-24T10:53:22;1999.9;;;468.5;;
64022;SDS011;50264;52.088;5.296;2022-08-24T10:55:10;1999.9;;;591.4;;
64022;SDS011;50264;52.088;5.296;2022-08-24T10:58:41;1999.9;;;591.4;;
64022;SDS011;50264;52.088;5.296;2022-08-24T11:00:31;550.1;;;109.4;;
64022;SDS011;50264;52.088;5.296;2022-08-24T11:02:08;3.8;;;2.6;;
64022;SDS011;50264;52.088;5.296;2022-08-24T11:04:04;1999.9;;;327.11;;
64022;SDS011;50264;52.088;5.296;2022-08-24T11:05:48;16.3;;;15.1;;
64022;SDS011;50264;52.088;5.296;2022-08-24T11:07:29;615.5;;;107.1;;
64022;SDS011;50264;52.088;5.296;2022-08-24T11:11:02;1999.9;;;729.2;;
64022;SDS011;50264;52.088;5.296;2022-08-24T11:12:43;1394.4;;;215.4;;
64022;SDS011;50264;52.088;5.296;2022-08-24T11:14:23;1999.9;;;719.0;;
64022;SDS011;50264;52.088;5.296;2022-08-24T11:16:01;1999.9;;;599.81;;
64022;SDS011;50264;52.088;5.296;2022-08-24T11:19:30;1999.9;;;590.81;;
64022;SDS011;50264;52.088;5.296;2022-08-24T11:21:09;1999.9;;;691.1;;
64022;SDS011;50264;52.088;5.296;2022-08-24T11:23:13;1999.9;;;693.4;;
64022;SDS011;50264;52.088;5.296;2022-08-24T11:24:53;1999.9;;;697.1;;
64022;SDS011;50264;52.088;5.296;2022-08-24T11:26:43;1999.9;;;759.7;;
64022;SDS011;50264;52.088;5.296;2022-08-24T11:28:28;1999.9;;;760.2;;
64022;SDS011;50264;52.088;5.296;2022-08-24T11:31:50;1999.9;;;792.1;;
64022;SDS011;50264;52.088;5.296;2022-08-24T11:33:29;1999.9;;;850.9;;
64022;SDS011;50264;52.088;5.296;2022-08-24T11:35:15;1999.9;;;863.7;;
64022;SDS011;50264;52.088;5.296;2022-08-24T11:36:59;1999.9;;;874.5;;
64022;SDS011;50264;52.088;5.296;2022-08-24T11:40:13;1999.9;;;852.9;;
64022;SDS011;50264;52.088;5.296;2022-08-24T11:41:54;1999.9;;;855.8;;
64022;SDS011;50264;52.088;5.296;2022-08-24T11:43:40;1999.9;;;873.0;;
64022;SDS011;50264;52.088;5.296;2022-08-24T11:45:34;1999.9;;;786.6;;
64022;SDS011;50264;52.088;5.296;2022-08-24T11:47:22;1999.9;;;781.9;;
64022;SDS011;50264;52.088;5.296;2022-08-24T11:49:32;1999.9;;;788.3;;
64022;SDS011;50264;52.088;5.296;2022-08-24T11:51:31;1999.9;;;845.4;;
64022;SDS011;50264;52.088;5.296;2022-08-24T11:55:06;1999.9;;;858.7;;
64022;SDS011;50264;52.088;5.296;2022-08-24T11:56:50;1999.9;;;856.5;;
64022;SDS011;50264;52.088;5.296;2022-08-24T11:58:42;1999.9;;;650.81;;
64022;SDS011;50264;52.088;5.296;2022-08-24T12:00:32;1999.9;;;825.3;;
64022;SDS011;50264;52.088;5.296;2022-08-24T12:02:22;1999.9;;;844.6;;
64022;SDS011;50264;52.088;5.296;2022-08-24T12:04:09;1999.9;;;870.1;;
64022;SDS011;50264;52.088;5.296;2022-08-24T12:06:06;1999.9;;;826.4;;
64022;SDS011;50264;52.088;5.296;2022-08-24T12:09:56;1999.9;;;639.81;;
64022;SDS011;50264;52.088;5.296;2022-08-24T12:11:52;1999.9;;;593.71;;
64022;SDS011;50264;52.088;5.296;2022-08-24T12:13:43;1999.9;;;674.2;;
64022;SDS011;50264;52.088;5.296;2022-08-24T12:15:35;1999.9;;;686.3;;
64022;SDS011;50264;52.088;5.296;2022-08-24T12:17:18;1999.9;;;702.3;;
64022;SDS011;50264;52.088;5.296;2022-08-24T12:19:02;1999.9;;;671.7;;
64022;SDS011;50264;52.088;5.296;2022-08-24T12:20:45;1999.9;;;715.8;;
64022;SDS011;50264;52.088;5.296;2022-08-24T12:24:04;1999.9;;;716.4;;
64022;SDS011;50264;52.088;5.296;2022-08-24T12:26:18;1999.9;;;638.21;;
64022;SDS011;50264;52.088;5.296;2022-08-24T12:28:02;1999.9;;;671.4;;